createdAt,value
2018-04-06T00:00:19.456Z,1.60
2018-04-06T00:02:57.789Z,1.23
2018-04-06T00:05:35.847Z,1.40
2018-04-06T00:08:13.641Z,1.57
2018-04-06T00:10:54.339Z,1.83
2018-04-06T00:13:32.175Z,1.77
2018-04-06T00:16:11.392Z,1.93
2018-04-06T00:18:52.887Z,1.70
2018-04-06T00:21:30.811Z,2.37
2018-04-06T00:24:09.530Z,1.57
2018-04-06T00:26:47.676Z,1.57
2018-04-06T00:29:25.808Z,1.67
2018-04-06T00:32:04.401Z,1.80
2018-04-06T00:34:42.330Z,1.87
2018-04-06T00:37:20.780Z,1.40
2018-04-06T00:39:59.427Z,1.77
2018-04-06T00:42:38.817Z,1.57
2018-04-06T00:45:17.395Z,1.60
2018-04-06T00:47:55.344Z,1.50
2018-04-06T00:50:35.417Z,1.83
2018-04-06T00:53:24.131Z,1.97
2018-04-06T00:56:02.616Z,1.60
2018-04-06T00:58:41.282Z,1.57
2018-04-06T01:01:19.212Z,1.83
2018-04-06T01:03:57.134Z,1.40
2018-04-06T01:06:36.978Z,1.20
2018-04-06T01:09:15.873Z,1.33
2018-04-06T01:11:54.051Z,1.60
2018-04-06T01:14:32.781Z,2.10
2018-04-06T01:17:11.504Z,1.60
2018-04-06T01:19:50.168Z,1.40
2018-04-06T01:22:28.569Z,1.40
2018-04-06T01:25:08.691Z,1.30
2018-04-06T01:27:46.362Z,1.83
2018-04-06T01:30:25.108Z,1.63
2018-04-06T01:33:02.960Z,1.30
2018-04-06T01:35:41.144Z,1.70
2018-04-06T01:38:21.325Z,1.40
2018-04-06T01:40:59.730Z,1.80
2018-04-06T01:43:38.073Z,1.67
2018-04-06T01:46:16.458Z,2.10
2018-04-06T01:48:54.748Z,1.93
2018-04-06T01:51:32.632Z,1.63
2018-04-06T01:54:11.454Z,1.43
2018-04-06T01:56:49.830Z,2.20
2018-04-06T01:59:27.622Z,1.90
2018-04-06T02:02:06.985Z,1.73
2018-04-06T02:04:44.938Z,1.47
2018-04-06T02:07:22.932Z,1.70
2018-04-06T02:10:01.314Z,1.60
2018-04-06T02:12:39.213Z,1.90
2018-04-06T02:15:17.085Z,1.43
2018-04-06T02:17:55.460Z,1.43
2018-04-06T02:20:33.939Z,1.87
2018-04-06T02:23:12.449Z,1.47
2018-04-06T02:25:51.985Z,1.60
2018-04-06T02:28:29.837Z,1.90
2018-04-06T02:31:09.002Z,1.70
2018-04-06T02:33:49.657Z,1.87
2018-04-06T02:36:27.644Z,1.77
2018-04-06T02:39:06.296Z,1.73
2018-04-06T02:41:49.092Z,1.60
2018-04-06T02:44:27.171Z,2.60
2018-04-06T02:47:05.178Z,1.80
2018-04-06T02:49:43.506Z,1.80
2018-04-06T02:52:22.624Z,1.50
2018-04-06T02:55:00.868Z,1.63
2018-04-06T02:57:39.388Z,1.50
2018-04-06T03:00:18.058Z,1.73
2018-04-06T03:02:55.854Z,2.03
2018-04-06T03:05:35.361Z,1.70
2018-04-06T03:08:14.198Z,2.03
2018-04-06T03:10:52.077Z,2.10
2018-04-06T03:13:31.885Z,1.70
2018-04-06T03:16:09.974Z,1.50
2018-04-06T03:18:48.735Z,2.10
2018-04-06T03:21:28.285Z,1.70
2018-04-06T03:24:06.689Z,1.80
2018-04-06T03:26:44.979Z,2.40
2018-04-06T03:29:25.138Z,1.90
2018-04-06T03:32:03.839Z,1.93
2018-04-06T03:34:43.268Z,1.80
2018-04-06T03:37:22.243Z,2.03
2018-04-06T03:40:00.024Z,2.00
2018-04-06T03:42:38.099Z,2.30
2018-04-06T03:45:16.604Z,2.40
2018-04-06T03:47:54.955Z,1.93
2018-04-06T03:50:32.970Z,1.80
2018-04-06T03:53:11.261Z,2.43
2018-04-06T03:55:49.832Z,1.97
2018-04-06T03:58:27.921Z,2.53
2018-04-06T04:01:06.649Z,2.20
2018-04-06T04:03:44.279Z,2.40
2018-04-06T04:06:22.677Z,2.40
2018-04-06T04:09:03.579Z,2.53
2018-04-06T04:11:41.705Z,2.00
2018-04-06T04:14:21.734Z,2.93
2018-04-06T04:17:01.213Z,1.63
2018-04-06T04:19:41.366Z,1.90
2018-04-06T04:22:20.870Z,1.90
2018-04-06T04:24:58.886Z,2.10
2018-04-06T04:27:37.445Z,2.07
2018-04-06T04:30:15.750Z,2.10
2018-04-06T04:32:53.779Z,2.93
2018-04-06T04:35:31.597Z,2.80
2018-04-06T04:38:09.872Z,2.63
2018-04-06T04:40:47.721Z,2.40
2018-04-06T04:43:25.417Z,3.87
2018-04-06T04:46:03.531Z,2.70
2018-04-06T04:48:41.639Z,2.50
2018-04-06T04:51:19.718Z,3.10
2018-04-06T04:53:58.591Z,3.07
2018-04-06T04:56:36.637Z,3.03
2018-04-06T04:59:15.007Z,3.07
2018-04-06T05:01:53.751Z,3.10
2018-04-06T05:04:32.037Z,2.63
2018-04-06T05:07:11.058Z,2.90
2018-04-06T05:09:51.591Z,3.60
2018-04-06T05:12:29.581Z,3.33
2018-04-06T05:15:09.137Z,3.17
2018-04-06T05:17:47.981Z,4.27
2018-04-06T05:20:28.352Z,4.87
2018-04-06T05:23:11.156Z,3.70
2018-04-06T05:25:51.654Z,3.63
2018-04-06T05:28:35.183Z,3.13
2018-04-06T05:31:12.947Z,2.70
2018-04-06T05:33:50.737Z,4.77
2018-04-06T05:36:31.908Z,3.60
2018-04-06T05:39:09.751Z,3.70
2018-04-06T05:41:50.351Z,4.13
2018-04-06T05:44:28.370Z,4.30
2018-04-06T05:47:07.881Z,3.70
2018-04-06T05:49:47.774Z,3.90
2018-04-06T05:52:25.825Z,3.63
2018-04-06T05:55:04.316Z,3.70
2018-04-06T05:57:42.223Z,3.83
2018-04-06T06:00:21.458Z,3.97
2018-04-06T06:03:00.530Z,4.03
2018-04-06T06:05:39.528Z,3.17
2018-04-06T06:08:18.329Z,3.13
2018-04-06T06:10:59.212Z,3.40
2018-04-06T06:13:37.929Z,3.60
2018-04-06T06:16:18.941Z,3.17
2018-04-06T06:18:58.037Z,4.00
2018-04-06T06:21:36.993Z,3.20
2018-04-06T06:24:20.555Z,3.13
2018-04-06T06:26:58.302Z,3.07
2018-04-06T06:29:38.132Z,2.63
2018-04-06T06:32:19.656Z,2.67
2018-04-06T06:35:00.812Z,2.90
2018-04-06T06:37:40.584Z,3.40
2018-04-06T06:40:22.019Z,2.80
2018-04-06T06:42:59.805Z,3.50
2018-04-06T06:45:39.159Z,3.10
2018-04-06T06:48:21.253Z,3.17
2018-04-06T06:51:01.654Z,3.50
2018-04-06T06:53:41.077Z,4.40
2018-04-06T06:56:22.382Z,3.73
2018-04-06T06:59:02.026Z,4.10
2018-04-06T07:01:41.736Z,3.03
2018-04-06T07:04:23.395Z,3.23
2018-04-06T07:07:03.256Z,4.00
2018-04-06T07:09:44.510Z,3.83
2018-04-06T07:12:23.000Z,3.53
2018-04-06T07:15:03.337Z,3.67
2018-04-06T07:17:43.575Z,3.30
2018-04-06T07:20:24.152Z,3.80
2018-04-06T07:23:06.740Z,3.57
2018-04-06T07:25:45.215Z,3.90
2018-04-06T07:28:28.967Z,4.13
2018-04-06T07:31:06.971Z,3.90
2018-04-06T07:33:46.271Z,3.10
2018-04-06T07:36:28.216Z,3.97
2018-04-06T07:39:08.869Z,3.20
2018-04-06T07:41:46.731Z,3.23
2018-04-06T07:44:28.160Z,3.10
2018-04-06T07:47:07.017Z,3.03
2018-04-06T07:49:46.370Z,2.40
2018-04-06T07:52:28.931Z,3.47
2018-04-06T07:55:06.933Z,2.20
2018-04-06T07:57:47.547Z,2.30
2018-04-06T08:00:30.250Z,2.60
2018-04-06T08:03:09.599Z,3.17
2018-04-06T08:05:49.257Z,3.23
2018-04-06T08:08:30.476Z,2.33
2018-04-06T08:11:12.366Z,2.70
2018-04-06T08:13:51.563Z,2.27
2018-04-06T08:16:32.646Z,2.87
2018-04-06T08:19:12.916Z,2.63
2018-04-06T08:21:52.709Z,3.90
2018-04-06T08:24:32.291Z,2.90
2018-04-06T08:27:14.515Z,3.23
2018-04-06T08:29:53.407Z,2.40
2018-04-06T08:32:34.882Z,2.70
2018-04-06T08:35:14.235Z,2.50
2018-04-06T08:37:54.365Z,2.80
2018-04-06T08:40:36.024Z,2.60
2018-04-06T08:43:14.722Z,2.30
2018-04-06T08:45:56.917Z,2.30
2018-04-06T08:48:36.495Z,2.53
2018-04-06T08:51:16.860Z,2.33
2018-04-06T08:53:58.790Z,2.57
2018-04-06T08:56:37.122Z,2.27
2018-04-06T08:59:20.117Z,2.60
2018-04-06T09:01:57.900Z,2.80
2018-04-06T09:04:36.088Z,2.73
2018-04-06T09:07:18.448Z,2.63
2018-04-06T09:09:57.664Z,2.80
2018-04-06T09:12:37.242Z,2.70
2018-04-06T09:15:21.310Z,2.43
2018-04-06T09:18:02.556Z,2.67
2018-04-06T09:20:40.626Z,3.03
2018-04-06T09:23:19.409Z,2.70
2018-04-06T09:26:00.575Z,3.17
2018-04-06T09:28:40.581Z,3.00
2018-04-06T09:31:23.173Z,3.13
2018-04-06T09:34:01.181Z,2.83
2018-04-06T09:36:45.198Z,2.50
2018-04-06T09:39:24.302Z,2.10
2018-04-06T09:42:02.627Z,2.37
2018-04-06T09:44:44.636Z,2.53
2018-04-06T09:47:22.894Z,2.83
2018-04-06T09:50:01.906Z,2.43
2018-04-06T09:52:44.515Z,2.30
2018-04-06T09:55:24.293Z,2.63
2018-04-06T09:58:03.870Z,3.00
2018-04-06T10:00:45.145Z,4.33
2018-04-06T10:03:24.305Z,2.77
2018-04-06T10:06:05.263Z,2.90
2018-04-06T10:08:45.385Z,2.63
2018-04-06T10:11:24.650Z,2.23
2018-04-06T10:14:07.826Z,2.40
2018-04-06T10:16:46.399Z,2.77
2018-04-06T10:19:26.306Z,2.83
2018-04-06T10:22:08.273Z,2.30
2018-04-06T10:24:47.130Z,2.10
2018-04-06T10:27:26.834Z,2.60
2018-04-06T10:30:13.463Z,2.43
2018-04-06T10:32:51.872Z,2.40
2018-04-06T10:35:29.882Z,2.40
2018-04-06T10:38:10.533Z,2.27
2018-04-06T10:40:50.991Z,3.80
2018-04-06T10:43:29.633Z,2.53
2018-04-06T10:46:08.158Z,2.40
2018-04-06T10:48:52.628Z,2.60
2018-04-06T10:51:31.204Z,2.70
2018-04-06T10:54:10.324Z,2.43
2018-04-06T10:56:52.756Z,2.97
2018-04-06T10:59:31.900Z,2.67
2018-04-06T11:02:10.736Z,2.30
2018-04-06T11:04:52.467Z,2.97
2018-04-06T11:07:31.583Z,1.90
2018-04-06T11:10:11.470Z,2.23
2018-04-06T11:12:53.382Z,3.03
2018-04-06T11:15:33.252Z,2.80
2018-04-06T11:18:15.117Z,2.40
2018-04-06T11:20:53.058Z,2.73
2018-04-06T11:23:33.888Z,2.57
2018-04-06T11:26:13.738Z,2.10
2018-04-06T11:28:53.862Z,2.97
2018-04-06T11:31:34.383Z,2.53
2018-04-06T11:34:14.621Z,2.20
2018-04-06T11:36:54.558Z,1.97
2018-04-06T11:39:35.188Z,2.23
2018-04-06T11:42:17.801Z,2.83
2018-04-06T11:44:56.032Z,2.50
2018-04-06T11:47:38.320Z,1.60
2018-04-06T11:50:17.317Z,2.70
2018-04-06T11:52:56.460Z,2.57
2018-04-06T11:55:38.720Z,2.27
2018-04-06T11:58:18.204Z,2.50
2018-04-06T12:00:57.509Z,2.30
2018-04-06T12:03:39.317Z,2.10
2018-04-06T12:06:18.984Z,2.40
2018-04-06T12:08:59.110Z,2.70
2018-04-06T12:11:39.430Z,2.93
2018-04-06T12:14:19.050Z,3.13
2018-04-06T12:17:01.761Z,2.53
2018-04-06T12:19:41.540Z,2.60
2018-04-06T12:22:20.300Z,2.80
2018-04-06T12:25:02.948Z,2.50
2018-04-06T12:27:42.080Z,2.57
2018-04-06T12:30:28.571Z,2.70
2018-04-06T12:33:08.208Z,1.93
2018-04-06T12:35:46.175Z,2.30
2018-04-06T12:38:24.383Z,3.33
2018-04-06T12:41:02.004Z,2.70
2018-04-06T12:43:43.877Z,3.90
2018-04-06T12:46:25.530Z,2.70
2018-04-06T12:49:04.858Z,3.27
2018-04-06T12:51:46.176Z,3.30
2018-04-06T12:54:24.107Z,2.57
2018-04-06T12:57:04.863Z,3.50
2018-04-06T12:59:46.507Z,3.37
2018-04-06T13:02:24.413Z,3.27
2018-04-06T13:05:07.824Z,3.07
2018-04-06T13:07:46.534Z,3.07
2018-04-06T13:10:26.473Z,3.23
2018-04-06T13:13:10.136Z,3.80
2018-04-06T13:15:47.903Z,3.10
2018-04-06T13:18:28.451Z,2.60
2018-04-06T13:21:07.243Z,3.80
2018-04-06T13:23:47.584Z,3.60
2018-04-06T13:26:29.015Z,3.20
2018-04-06T13:29:10.050Z,3.00
2018-04-06T13:31:48.991Z,3.97
2018-04-06T13:34:31.862Z,3.33
2018-04-06T13:37:09.934Z,3.80
2018-04-06T13:39:49.327Z,3.43
2018-04-06T13:42:30.790Z,3.83
2018-04-06T13:47:33.169Z,3.93
2018-04-06T13:50:10.098Z,3.40
2018-04-06T13:52:48.818Z,3.67
2018-04-06T13:55:28.514Z,3.20
2018-04-06T13:58:07.437Z,3.40
2018-04-06T14:00:46.381Z,4.23
2018-04-06T14:03:23.676Z,5.90
2018-04-06T14:06:03.785Z,4.70
2018-04-06T14:08:41.620Z,3.60
2018-04-06T14:11:18.598Z,2.47
2018-04-06T14:13:58.442Z,3.50
2018-04-06T14:16:36.213Z,3.50
2018-04-06T14:19:14.072Z,3.27
2018-04-06T14:21:52.042Z,2.80
2018-04-06T14:24:30.989Z,2.93
2018-04-06T14:27:07.809Z,2.37
2018-04-06T14:29:48.808Z,2.50
2018-04-06T14:32:33.291Z,2.50
2018-04-06T14:35:11.268Z,3.20
2018-04-06T14:37:48.534Z,2.97
2018-04-06T14:40:24.673Z,4.43
2018-04-06T14:43:00.736Z,2.80
2018-04-06T14:45:39.435Z,2.77
2018-04-06T14:48:17.078Z,3.20
2018-04-06T14:50:56.533Z,3.07
2018-04-06T14:53:34.589Z,2.67
2018-04-06T14:56:13.459Z,2.73
2018-04-06T14:58:50.016Z,3.10
2018-04-06T15:01:26.313Z,2.97
2018-04-06T15:04:02.363Z,3.07
2018-04-06T15:06:42.342Z,3.40
2018-04-06T15:09:18.949Z,2.90
2018-04-06T15:11:57.028Z,3.20
2018-04-06T15:14:35.865Z,2.37
2018-04-06T15:17:12.260Z,4.37
2018-04-06T15:19:49.842Z,4.57
2018-04-06T15:22:28.353Z,3.17
2018-04-06T15:25:04.705Z,3.37
2018-04-06T15:27:41.654Z,2.97
2018-04-06T15:30:21.918Z,3.40
2018-04-06T15:33:01.173Z,3.20
2018-04-06T15:35:43.230Z,3.00
2018-04-06T15:38:23.734Z,3.50
2018-04-06T15:41:02.030Z,4.00
2018-04-06T15:43:42.236Z,2.80
2018-04-06T15:46:20.625Z,3.07
2018-04-06T15:48:57.488Z,3.07
2018-04-06T15:51:35.641Z,2.67
2018-04-06T15:54:12.811Z,2.93
2018-04-06T15:56:49.559Z,2.87
2018-04-06T15:59:26.617Z,2.77
2018-04-06T16:02:08.920Z,2.70
2018-04-06T16:04:45.980Z,2.93
2018-04-06T16:07:24.410Z,2.70
2018-04-06T16:10:03.140Z,2.70
2018-04-06T16:12:40.026Z,2.40
2018-04-06T16:15:18.347Z,2.70
2018-04-06T16:17:54.833Z,2.33
2018-04-06T16:20:32.018Z,2.83
2018-04-06T16:23:08.507Z,3.30
2018-04-06T16:25:48.577Z,3.30
2018-04-06T16:28:26.567Z,3.30
2018-04-06T16:31:04.512Z,3.50
2018-04-06T16:33:40.996Z,2.83
2018-04-06T16:36:19.533Z,2.87
2018-04-06T16:38:56.716Z,2.60
2018-04-06T16:41:35.033Z,3.03
2018-04-06T16:44:11.453Z,3.53
2018-04-06T16:46:49.263Z,2.50
2018-04-06T16:49:28.742Z,3.80
2018-04-06T16:52:05.643Z,3.20
2018-04-06T16:54:44.050Z,4.03
2018-04-06T16:57:20.947Z,4.27
2018-04-06T16:59:56.957Z,4.53
2018-04-06T17:02:33.529Z,4.93
2018-04-06T17:05:14.486Z,4.80
2018-04-06T17:07:53.203Z,4.90
2018-04-06T17:10:36.880Z,6.07
2018-04-06T17:13:14.385Z,3.50
2018-04-06T17:15:53.875Z,3.37
2018-04-06T17:18:36.014Z,3.40
2018-04-06T17:21:15.024Z,4.20
2018-04-06T17:23:53.172Z,4.30
2018-04-06T17:26:34.374Z,4.13
2018-04-06T17:29:13.124Z,3.43
2018-04-06T17:31:50.243Z,3.77
2018-04-06T17:34:34.467Z,3.60
2018-04-06T17:37:12.939Z,3.77
2018-04-06T17:39:49.719Z,3.70
2018-04-06T17:42:26.585Z,3.07
2018-04-06T17:45:03.121Z,3.60
2018-04-06T17:47:41.299Z,3.50
2018-04-06T17:50:18.689Z,2.87
2018-04-06T17:52:57.460Z,3.53
2018-04-06T17:55:37.561Z,2.83
2018-04-06T17:58:17.671Z,3.10
2018-04-06T18:00:56.599Z,3.50
2018-04-06T18:03:38.813Z,3.10
2018-04-06T18:06:15.078Z,3.17
2018-04-06T18:08:52.728Z,2.97
2018-04-06T18:11:29.669Z,2.63
2018-04-06T18:14:07.777Z,3.10
2018-04-06T18:16:43.984Z,3.10
2018-04-06T18:19:21.840Z,3.03
2018-04-06T18:22:04.513Z,4.30
2018-04-06T18:24:43.147Z,3.50
2018-04-06T18:27:21.468Z,3.47
2018-04-06T18:30:00.164Z,3.10
2018-04-06T18:32:37.124Z,3.70
2018-04-06T18:35:17.863Z,5.43
2018-04-06T18:38:01.465Z,3.73
2018-04-06T18:40:41.670Z,3.80
2018-04-06T18:43:25.889Z,4.30
2018-04-06T18:46:07.912Z,4.27
2018-04-06T18:48:45.193Z,4.47
2018-04-06T18:51:23.529Z,3.73
2018-04-06T18:54:00.348Z,3.60
2018-04-06T18:56:38.712Z,3.17
2018-04-06T18:59:15.136Z,3.43
2018-04-06T19:01:52.666Z,3.63
2018-04-06T19:04:29.022Z,3.40
2018-04-06T19:07:05.363Z,4.80
2018-04-06T19:09:41.497Z,3.90
2018-04-06T19:12:20.552Z,4.30
2018-04-06T19:14:56.986Z,4.20
2018-04-06T19:17:34.522Z,4.03
2018-04-06T19:20:10.853Z,3.57
2018-04-06T19:22:50.008Z,3.37
2018-04-06T19:25:30.157Z,4.00
2018-04-06T19:28:11.522Z,3.90
2018-04-06T19:30:52.624Z,3.77
2018-04-06T19:33:30.402Z,3.80
2018-04-06T19:36:06.897Z,3.73
2018-04-06T19:38:43.781Z,3.83
2018-04-06T19:41:20.253Z,3.43
2018-04-06T19:43:59.211Z,4.07
2018-04-06T19:46:35.754Z,4.00
2018-04-06T19:49:12.007Z,4.27
2018-04-06T19:51:52.476Z,3.83
2018-04-06T19:54:30.550Z,4.00
2018-04-06T19:57:07.865Z,3.63
2018-04-06T19:59:46.070Z,4.20
2018-04-06T20:02:22.573Z,4.07
2018-04-06T20:04:59.363Z,4.10
2018-04-06T20:07:37.571Z,5.27
2018-04-06T20:10:15.471Z,4.57
2018-04-06T20:12:52.981Z,4.90
2018-04-06T20:15:29.648Z,5.17
2018-04-06T20:18:06.790Z,5.13
2018-04-06T20:20:43.132Z,5.90
2018-04-06T20:23:20.728Z,5.30
2018-04-06T20:25:57.703Z,5.37
2018-04-06T20:28:34.379Z,4.63
2018-04-06T20:31:12.317Z,5.47
2018-04-06T20:33:55.331Z,5.30
2018-04-06T20:36:32.303Z,5.80
2018-04-06T20:39:08.984Z,5.23
2018-04-06T20:41:45.205Z,5.73
2018-04-06T20:44:21.630Z,6.20
2018-04-06T20:47:00.683Z,5.73
2018-04-06T20:49:37.213Z,5.93
2018-04-06T20:52:14.759Z,6.67
2018-04-06T20:54:54.178Z,6.47
2018-04-06T20:57:30.453Z,5.97
2018-04-06T21:00:08.416Z,5.17
2018-04-06T21:02:46.347Z,4.30
2018-04-06T21:05:23.444Z,4.90
2018-04-06T21:08:00.811Z,5.13
2018-04-06T21:10:38.747Z,5.13
2018-04-06T21:13:15.373Z,5.50
2018-04-06T21:15:51.939Z,5.80
2018-04-06T21:18:29.286Z,5.80
2018-04-06T21:21:05.631Z,6.57
2018-04-06T21:23:42.046Z,6.87
2018-04-06T21:26:20.321Z,5.70
2018-04-06T21:28:57.823Z,6.10
2018-04-06T21:31:35.068Z,5.67
2018-04-06T21:34:12.603Z,6.17
2018-04-06T21:36:48.991Z,4.43
2018-04-06T21:39:27.889Z,4.47
2018-04-06T21:42:05.698Z,4.67
2018-04-06T21:44:43.199Z,4.80
2018-04-06T21:47:20.760Z,4.80
2018-04-06T21:49:57.481Z,4.03
2018-04-06T21:52:34.542Z,3.80
2018-04-06T21:55:11.870Z,4.90
2018-04-06T21:57:48.879Z,4.70
2018-04-06T22:00:25.218Z,4.67
2018-04-06T22:03:03.741Z,3.80
2018-04-06T22:05:40.703Z,3.93
2018-04-06T22:08:18.368Z,3.93
2018-04-06T22:10:55.083Z,4.23
2018-04-06T22:13:31.675Z,4.00
2018-04-06T22:16:07.938Z,3.93
2018-04-06T22:18:44.844Z,3.80
2018-04-06T22:21:21.310Z,3.63
2018-04-06T22:23:58.282Z,4.07
2018-04-06T22:26:36.543Z,3.73
2018-04-06T22:29:13.668Z,3.73
2018-04-06T22:31:51.206Z,3.47
2018-04-06T22:34:28.599Z,3.30
2018-04-06T22:37:06.044Z,3.30
2018-04-06T22:39:43.171Z,3.67
2018-04-06T22:42:19.552Z,3.50
2018-04-06T22:44:56.839Z,3.30
2018-04-06T22:47:33.514Z,3.77
2018-04-06T22:50:11.472Z,3.60
2018-04-06T22:52:48.694Z,3.30
2018-04-06T22:55:25.298Z,3.27
2018-04-06T22:58:01.774Z,3.97
2018-04-06T23:00:38.253Z,3.60
2018-04-06T23:03:16.063Z,3.90
2018-04-06T23:05:53.638Z,3.43
2018-04-06T23:08:30.897Z,3.07
2018-04-06T23:11:07.366Z,3.77
2018-04-06T23:13:44.178Z,4.00
2018-04-06T23:16:22.276Z,3.37
2018-04-06T23:18:58.328Z,3.63
2018-04-06T23:21:37.241Z,3.60
2018-04-06T23:24:15.271Z,3.17
2018-04-06T23:26:52.612Z,3.80
2018-04-06T23:29:29.845Z,3.80
2018-04-06T23:32:06.802Z,3.47
2018-04-06T23:34:43.916Z,3.27
2018-04-06T23:37:20.302Z,2.70
2018-04-06T23:39:56.676Z,2.97
2018-04-06T23:42:32.994Z,3.60
2018-04-06T23:45:09.550Z,2.93
2018-04-06T23:47:45.787Z,3.20
2018-04-06T23:50:22.178Z,3.70
2018-04-06T23:53:01.320Z,3.40
2018-04-06T23:55:38.419Z,4.00
2018-04-06T23:58:14.876Z,4.17
